createdAt,value
2022-11-17T00:00:23.743Z,26.72
2022-11-17T00:00:53.811Z,26.74
2022-11-17T00:01:23.842Z,26.71
2022-11-17T00:01:53.945Z,26.74
2022-11-17T00:02:24.025Z,26.75
2022-11-17T00:02:54.144Z,26.71
2022-11-17T00:03:24.100Z,26.74
2022-11-17T00:03:54.137Z,26.72
2022-11-17T00:04:24.173Z,26.72
2022-11-17T00:04:54.208Z,26.75
2022-11-17T00:05:24.247Z,26.74
2022-11-17T00:05:54.302Z,26.72
2022-11-17T00:06:24.336Z,26.71
2022-11-17T00:06:54.407Z,26.71
2022-11-17T00:07:24.524Z,26.72
2022-11-17T00:07:54.428Z,26.70
2022-11-17T00:08:24.457Z,26.72
2022-11-17T00:08:54.487Z,26.72
2022-11-17T00:09:24.520Z,26.71
2022-11-17T00:09:54.554Z,26.71
2022-11-17T00:10:24.585Z,26.71
2022-11-17T00:10:54.640Z,26.71
2022-11-17T00:11:24.676Z,26.72
2022-11-17T00:11:54.705Z,26.72
2022-11-17T00:12:29.802Z,26.71
2022-11-17T00:12:54.786Z,26.71
2022-11-17T00:13:24.829Z,26.70
2022-11-17T00:13:54.844Z,26.68
2022-11-17T00:14:24.878Z,26.70
2022-11-17T00:14:54.926Z,26.70
2022-11-17T00:15:24.937Z,26.70
2022-11-17T00:15:54.989Z,26.70
2022-11-17T00:16:25.017Z,26.70
2022-11-17T00:16:55.052Z,26.70
2022-11-17T00:17:25.086Z,26.72
2022-11-17T00:17:55.113Z,26.70
2022-11-17T00:18:25.149Z,26.70
2022-11-17T00:18:55.184Z,26.70
2022-11-17T00:19:25.214Z,26.71
2022-11-17T00:19:55.246Z,26.68
2022-11-17T00:20:25.294Z,26.70
2022-11-17T00:20:55.322Z,26.68
2022-11-17T00:21:25.354Z,26.68
2022-11-17T00:21:55.385Z,26.68
2022-11-17T00:22:25.416Z,26.68
2022-11-17T00:22:55.441Z,26.70
2022-11-17T00:23:25.474Z,26.70
2022-11-17T00:23:55.503Z,26.68
2022-11-17T00:24:25.544Z,26.67
2022-11-17T00:24:55.572Z,26.68
2022-11-17T00:25:25.613Z,26.70
2022-11-17T00:25:55.641Z,26.67
2022-11-17T00:26:25.681Z,26.67
2022-11-17T00:26:55.710Z,26.67
2022-11-17T00:27:25.736Z,26.68
2022-11-17T00:27:55.778Z,26.65
2022-11-17T00:28:25.800Z,26.67
2022-11-17T00:28:55.835Z,26.70
2022-11-17T00:29:25.862Z,26.67
2022-11-17T00:29:55.896Z,26.67
2022-11-17T00:30:26.045Z,26.68
2022-11-17T00:30:56.043Z,26.70
2022-11-17T00:31:26.080Z,26.67
2022-11-17T00:31:56.109Z,26.67
2022-11-17T00:32:26.142Z,26.67
2022-11-17T00:32:56.185Z,26.70
2022-11-17T00:33:26.183Z,26.68
2022-11-17T00:33:56.177Z,26.65
2022-11-17T00:34:26.177Z,26.65
2022-11-17T00:34:56.170Z,26.67
2022-11-17T00:35:26.291Z,26.67
2022-11-17T00:35:56.292Z,26.65
2022-11-17T00:36:26.292Z,26.68
2022-11-17T00:36:56.283Z,26.65
2022-11-17T00:37:26.281Z,26.65
2022-11-17T00:37:56.403Z,26.67
2022-11-17T00:38:26.518Z,26.67
2022-11-17T00:38:56.516Z,26.67
2022-11-17T00:39:26.638Z,26.67
2022-11-17T00:40:00.744Z,26.68
2022-11-17T00:40:26.763Z,26.64
2022-11-17T00:40:56.758Z,26.65
2022-11-17T00:41:26.878Z,26.67
2022-11-17T00:41:56.873Z,26.65
2022-11-17T00:42:26.873Z,26.65
2022-11-17T00:42:56.863Z,26.65
2022-11-17T00:43:26.896Z,26.65
2022-11-17T00:43:56.934Z,26.64
2022-11-17T00:44:26.964Z,26.65
2022-11-17T00:44:56.997Z,26.64
2022-11-17T00:45:27.030Z,26.64
2022-11-17T00:45:57.184Z,26.65
2022-11-17T00:46:27.184Z,26.67
2022-11-17T00:46:57.213Z,26.67
2022-11-17T00:47:27.246Z,26.65
2022-11-17T00:47:57.280Z,26.64
2022-11-17T00:48:27.317Z,26.65
2022-11-17T00:48:57.353Z,26.64
2022-11-17T00:49:27.387Z,26.65
2022-11-17T00:49:57.416Z,26.65
2022-11-17T00:50:27.462Z,26.65
2022-11-17T00:50:57.493Z,26.64
2022-11-17T00:51:27.535Z,26.65
2022-11-17T00:51:57.571Z,26.64
2022-11-17T00:52:27.599Z,26.64
2022-11-17T00:52:57.639Z,26.64
2022-11-17T00:53:27.664Z,26.65
2022-11-17T00:53:57.694Z,26.62
2022-11-17T00:54:27.733Z,26.64
2022-11-17T00:54:57.842Z,26.64
2022-11-17T00:55:27.926Z,26.64
2022-11-17T00:55:57.948Z,26.64
2022-11-17T00:56:28.015Z,26.65
2022-11-17T00:56:58.036Z,26.65
2022-11-17T00:57:28.077Z,26.67
2022-11-17T00:57:58.113Z,26.65
2022-11-17T00:58:28.144Z,26.64
2022-11-17T00:58:58.184Z,26.65
2022-11-17T00:59:28.211Z,26.65
2022-11-17T00:59:58.241Z,26.65
2022-11-17T01:00:28.282Z,26.65
2022-11-17T01:00:58.308Z,26.64
2022-11-17T01:01:28.417Z,26.64
2022-11-17T01:01:58.485Z,26.64
2022-11-17T01:02:28.530Z,26.67
2022-11-17T01:02:58.558Z,26.64
2022-11-17T01:03:28.591Z,26.65
2022-11-17T01:03:58.630Z,26.62
2022-11-17T01:04:28.667Z,26.64
2022-11-17T01:04:58.697Z,26.65
2022-11-17T01:05:32.799Z,26.65
2022-11-17T01:05:58.794Z,26.64
2022-11-17T01:06:28.830Z,26.64
2022-11-17T01:06:58.956Z,26.64
2022-11-17T01:07:28.950Z,26.64
2022-11-17T01:07:58.976Z,26.65
2022-11-17T01:08:29.010Z,26.62
2022-11-17T01:08:59.046Z,26.62
2022-11-17T01:09:29.081Z,26.61
2022-11-17T01:09:59.110Z,26.65
2022-11-17T01:10:29.153Z,26.64
2022-11-17T01:10:59.184Z,26.65
2022-11-17T01:11:29.220Z,26.62
2022-11-17T01:11:59.253Z,26.62
2022-11-17T01:12:29.288Z,26.62
2022-11-17T01:12:59.319Z,26.61
2022-11-17T01:13:29.357Z,26.62
2022-11-17T01:13:59.394Z,26.64
2022-11-17T01:14:29.426Z,26.62
2022-11-17T01:14:59.454Z,26.62
2022-11-17T01:15:29.508Z,26.64
2022-11-17T01:15:59.541Z,26.65
2022-11-17T01:16:29.578Z,26.62
2022-11-17T01:16:59.734Z,26.62
2022-11-17T01:17:29.725Z,26.64
2022-11-17T01:17:59.753Z,26.61
2022-11-17T01:18:29.793Z,26.64
2022-11-17T01:18:59.826Z,26.61
2022-11-17T01:19:29.862Z,26.60
2022-11-17T01:19:59.897Z,26.62
2022-11-17T01:20:29.937Z,26.62
2022-11-17T01:20:59.974Z,26.64
2022-11-17T01:21:30.012Z,26.62
2022-11-17T01:22:00.046Z,26.62
2022-11-17T01:22:30.077Z,26.62
2022-11-17T01:23:00.105Z,26.62
2022-11-17T01:23:30.135Z,26.62
2022-11-17T01:24:00.171Z,26.64
2022-11-17T01:24:30.205Z,26.61
2022-11-17T01:25:00.247Z,26.62
2022-11-17T01:25:30.288Z,26.60
2022-11-17T01:26:00.326Z,26.61
2022-11-17T01:26:30.356Z,26.61
2022-11-17T01:27:00.393Z,26.62
2022-11-17T01:27:30.428Z,26.61
2022-11-17T01:28:00.457Z,26.62
2022-11-17T01:28:30.496Z,26.62
2022-11-17T01:29:00.529Z,26.61
2022-11-17T01:29:30.561Z,26.60
2022-11-17T01:30:00.607Z,26.58
2022-11-17T01:30:30.648Z,26.61
2022-11-17T01:31:00.681Z,26.61
2022-11-17T01:31:30.715Z,26.61
2022-11-17T01:32:00.757Z,26.61
2022-11-17T01:32:30.801Z,26.61
2022-11-17T01:33:00.807Z,26.60
2022-11-17T01:33:30.805Z,26.58
2022-11-17T01:34:00.798Z,26.60
2022-11-17T01:34:30.794Z,26.61
2022-11-17T01:35:00.784Z,26.60
2022-11-17T01:35:30.923Z,26.61
2022-11-17T01:36:00.918Z,26.61
2022-11-17T01:36:30.930Z,26.57
2022-11-17T01:37:00.919Z,26.61
2022-11-17T01:37:31.039Z,26.60
2022-11-17T01:38:01.035Z,26.58
2022-11-17T01:38:31.156Z,26.62
2022-11-17T01:39:01.268Z,26.61
2022-11-17T01:39:31.391Z,26.61
2022-11-17T01:40:01.400Z,26.61
2022-11-17T01:40:31.521Z,26.61
2022-11-17T01:41:01.514Z,26.58
2022-11-17T01:41:31.533Z,26.60
2022-11-17T01:42:01.528Z,26.61
2022-11-17T01:42:31.644Z,26.62
2022-11-17T01:43:01.643Z,26.61
2022-11-17T01:43:31.828Z,26.60
2022-11-17T01:44:01.782Z,26.60
2022-11-17T01:44:31.815Z,26.60
2022-11-17T01:45:01.849Z,26.57
2022-11-17T01:45:31.884Z,26.60
2022-11-17T01:46:01.912Z,26.58
2022-11-17T01:46:31.976Z,26.57
2022-11-17T01:47:02.006Z,26.57
2022-11-17T01:47:32.039Z,26.58
2022-11-17T01:48:02.197Z,26.58
2022-11-17T01:48:32.190Z,26.60
2022-11-17T01:49:02.226Z,26.58
2022-11-17T01:49:32.257Z,26.58
2022-11-17T01:50:02.288Z,26.58
2022-11-17T01:50:32.319Z,26.57
2022-11-17T01:51:02.359Z,26.58
2022-11-17T01:51:32.421Z,26.57
2022-11-17T01:52:02.454Z,26.58
2022-11-17T01:52:32.487Z,26.58
2022-11-17T01:53:02.514Z,26.57
2022-11-17T01:53:32.855Z,26.58
2022-11-17T01:54:02.547Z,26.55
2022-11-17T01:54:32.583Z,26.57
2022-11-17T01:55:02.610Z,26.58
2022-11-17T01:55:32.651Z,26.57
2022-11-17T01:56:02.683Z,26.55
2022-11-17T01:56:32.741Z,26.54
2022-11-17T01:57:02.785Z,26.57
2022-11-17T01:57:32.804Z,26.58
2022-11-17T01:58:02.831Z,26.57
2022-11-17T01:58:32.869Z,26.55
2022-11-17T01:59:02.901Z,26.57
2022-11-17T01:59:32.932Z,26.57
2022-11-17T02:00:02.960Z,26.57
2022-11-17T02:00:32.997Z,26.55
2022-11-17T02:01:03.026Z,26.58
2022-11-17T02:01:33.114Z,26.54
2022-11-17T02:02:03.195Z,26.55
2022-11-17T02:02:33.225Z,26.54
2022-11-17T02:03:03.254Z,26.57
2022-11-17T02:03:33.723Z,26.57
2022-11-17T02:04:03.363Z,26.54
2022-11-17T02:04:33.391Z,26.55
2022-11-17T02:05:03.426Z,26.55
2022-11-17T02:05:33.458Z,26.53
2022-11-17T02:06:03.487Z,26.54
2022-11-17T02:06:33.536Z,26.55
2022-11-17T02:07:03.654Z,26.54
2022-11-17T02:07:33.622Z,26.55
2022-11-17T02:08:03.674Z,26.54
2022-11-17T02:08:33.717Z,26.55
2022-11-17T02:09:03.742Z,26.55
2022-11-17T02:09:33.780Z,26.54
2022-11-17T02:10:03.813Z,26.57
2022-11-17T02:10:33.846Z,26.54
2022-11-17T02:11:03.890Z,26.53
2022-11-17T02:11:33.922Z,26.53
2022-11-17T02:12:03.956Z,26.55
2022-11-17T02:12:33.977Z,26.54
2022-11-17T02:13:04.010Z,26.53
2022-11-17T02:13:34.417Z,26.53
2022-11-17T02:14:04.139Z,26.54
2022-11-17T02:14:34.176Z,26.55
2022-11-17T02:15:04.204Z,26.51
2022-11-17T02:15:34.235Z,26.54
2022-11-17T02:16:04.273Z,26.55
2022-11-17T02:16:34.310Z,26.55
2022-11-17T02:17:11.581Z,26.54
2022-11-17T02:17:34.398Z,26.53
2022-11-17T02:18:04.441Z,26.54
2022-11-17T02:18:34.473Z,26.53
2022-11-17T02:19:04.611Z,26.54
2022-11-17T02:19:34.619Z,26.53
2022-11-17T02:20:04.655Z,26.53
2022-11-17T02:20:34.684Z,26.51
2022-11-17T02:21:04.724Z,26.51
2022-11-17T02:21:34.759Z,26.55
2022-11-17T02:22:04.786Z,26.53
2022-11-17T02:22:34.828Z,26.55
2022-11-17T02:23:04.862Z,26.53
2022-11-17T02:23:35.183Z,26.53
2022-11-17T02:24:04.974Z,26.53
2022-11-17T02:24:35.011Z,26.53
2022-11-17T02:25:05.037Z,26.53
2022-11-17T02:25:35.070Z,26.54
2022-11-17T02:26:05.128Z,26.54
2022-11-17T02:26:35.152Z,26.53
2022-11-17T02:27:05.194Z,26.51
2022-11-17T02:27:35.227Z,26.54
2022-11-17T02:28:05.255Z,26.53
2022-11-17T02:28:35.284Z,26.53
2022-11-17T02:29:05.324Z,26.54
2022-11-17T02:29:35.361Z,26.53
2022-11-17T02:30:05.390Z,26.50
2022-11-17T02:30:35.423Z,26.53
2022-11-17T02:31:05.464Z,26.51
2022-11-17T02:31:35.494Z,26.53
2022-11-17T02:32:05.525Z,26.53
2022-11-17T02:32:35.560Z,26.51
2022-11-17T02:33:05.575Z,26.51
2022-11-17T02:33:35.916Z,26.54
2022-11-17T02:34:05.691Z,26.53
2022-11-17T02:34:35.804Z,26.51
2022-11-17T02:35:05.760Z,26.51
2022-11-17T02:35:35.758Z,26.53
2022-11-17T02:36:05.878Z,26.51
2022-11-17T02:36:35.870Z,26.53
2022-11-17T02:37:05.993Z,26.53
2022-11-17T02:37:35.988Z,26.54
2022-11-17T02:38:06.106Z,26.54
2022-11-17T02:38:36.103Z,26.53
2022-11-17T02:39:06.218Z,26.50
2022-11-17T02:39:36.338Z,26.53
2022-11-17T02:40:06.452Z,26.53
2022-11-17T02:40:36.448Z,26.50
2022-11-17T02:41:06.571Z,26.51
2022-11-17T02:41:36.684Z,26.53
2022-11-17T02:42:06.809Z,26.53
2022-11-17T02:42:36.802Z,26.51
2022-11-17T02:43:06.811Z,26.53
2022-11-17T02:43:37.276Z,26.53
2022-11-17T02:44:06.889Z,26.53
2022-11-17T02:44:36.920Z,26.50
2022-11-17T02:45:06.959Z,26.53
2022-11-17T02:45:37.000Z,26.51
2022-11-17T02:46:07.078Z,26.54
2022-11-17T02:46:37.107Z,26.54
2022-11-17T02:47:07.146Z,26.53
2022-11-17T02:47:37.181Z,26.51
2022-11-17T02:48:07.210Z,26.53
2022-11-17T02:48:37.240Z,26.50
2022-11-17T02:49:07.272Z,26.51
2022-11-17T02:49:37.299Z,26.50
2022-11-17T02:50:07.449Z,26.50
2022-11-17T02:50:37.334Z,26.48
2022-11-17T02:51:07.361Z,26.53
2022-11-17T02:51:37.397Z,26.51
2022-11-17T02:52:07.431Z,26.50
2022-11-17T02:52:37.458Z,26.48
2022-11-17T02:53:07.494Z,26.53
2022-11-17T02:53:38.003Z,26.50
2022-11-17T02:54:07.596Z,26.50
2022-11-17T02:54:37.625Z,26.50
2022-11-17T02:55:07.678Z,26.48
2022-11-17T02:55:37.706Z,26.48
2022-11-17T02:56:07.735Z,26.50
2022-11-17T02:56:37.775Z,26.50
2022-11-17T02:57:07.823Z,26.51
2022-11-17T02:57:37.854Z,26.47
2022-11-17T02:58:07.895Z,26.50
2022-11-17T02:58:37.930Z,26.48
2022-11-17T02:59:07.961Z,26.50
2022-11-17T02:59:38.002Z,26.50
2022-11-17T03:00:08.032Z,26.48
2022-11-17T03:00:38.058Z,26.50
2022-11-17T03:01:08.119Z,26.48
2022-11-17T03:01:38.196Z,26.51
2022-11-17T03:02:08.215Z,26.50
2022-11-17T03:02:38.248Z,26.50
2022-11-17T03:03:08.278Z,26.50
2022-11-17T03:03:38.482Z,26.48
2022-11-17T03:04:08.303Z,26.44
2022-11-17T03:04:38.339Z,26.47
2022-11-17T03:05:08.380Z,26.48
2022-11-17T03:05:38.523Z,26.48
2022-11-17T03:06:08.521Z,26.48
2022-11-17T03:06:38.618Z,26.46
2022-11-17T03:07:08.693Z,26.47
2022-11-17T03:07:38.710Z,26.47
2022-11-17T03:08:08.743Z,26.50
2022-11-17T03:08:38.776Z,26.46
2022-11-17T03:09:08.809Z,26.46
2022-11-17T03:09:38.860Z,26.47
2022-11-17T03:10:08.890Z,26.47
2022-11-17T03:10:38.919Z,26.46
2022-11-17T03:11:08.953Z,26.47
2022-11-17T03:11:38.988Z,26.48
2022-11-17T03:12:09.035Z,26.46
2022-11-17T03:12:39.064Z,26.47
2022-11-17T03:13:09.097Z,26.47
2022-11-17T03:13:39.124Z,26.46
2022-11-17T03:14:09.161Z,26.48
2022-11-17T03:14:39.192Z,26.47
2022-11-17T03:15:09.231Z,26.46
2022-11-17T03:15:39.260Z,26.48
2022-11-17T03:16:09.293Z,26.47
2022-11-17T03:16:39.326Z,26.48
2022-11-17T03:17:09.395Z,26.47
2022-11-17T03:17:39.428Z,26.47
2022-11-17T03:18:09.461Z,26.48
2022-11-17T03:18:39.484Z,26.47
2022-11-17T03:19:09.528Z,26.48
2022-11-17T03:19:39.555Z,26.47
2022-11-17T03:20:09.586Z,26.48
2022-11-17T03:20:39.620Z,26.48
2022-11-17T03:21:09.684Z,26.47
2022-11-17T03:21:39.689Z,26.48
2022-11-17T03:22:09.718Z,26.46
2022-11-17T03:22:39.755Z,26.48
2022-11-17T03:23:09.783Z,26.47
2022-11-17T03:23:39.817Z,26.47
2022-11-17T03:24:09.851Z,26.47
2022-11-17T03:24:39.888Z,26.48
2022-11-17T03:25:09.917Z,26.48
2022-11-17T03:25:39.946Z,26.47
2022-11-17T03:26:09.978Z,26.47
2022-11-17T03:26:40.007Z,26.47
2022-11-17T03:27:10.046Z,26.48
2022-11-17T03:27:40.074Z,26.47
2022-11-17T03:28:10.109Z,26.46
2022-11-17T03:28:40.150Z,26.48
2022-11-17T03:29:10.180Z,26.46
2022-11-17T03:29:40.209Z,26.46
2022-11-17T03:30:10.243Z,26.48
2022-11-17T03:30:40.283Z,26.47
2022-11-17T03:31:10.324Z,26.47
2022-11-17T03:31:40.345Z,26.47
2022-11-17T03:32:10.379Z,26.46
2022-11-17T03:32:40.403Z,26.44
2022-11-17T03:33:10.414Z,26.47
2022-11-17T03:33:40.409Z,26.46
2022-11-17T03:34:10.525Z,26.47
2022-11-17T03:34:40.639Z,26.47
2022-11-17T03:35:10.639Z,26.47
2022-11-17T03:35:40.633Z,26.47
2022-11-17T03:36:10.750Z,26.47
2022-11-17T03:36:40.769Z,26.47
2022-11-17T03:37:10.741Z,26.47
2022-11-17T03:37:40.858Z,26.46
2022-11-17T03:38:10.861Z,26.47
2022-11-17T03:38:40.847Z,26.46
2022-11-17T03:39:10.968Z,26.44
2022-11-17T03:39:40.967Z,26.44
2022-11-17T03:40:10.959Z,26.47
2022-11-17T03:40:41.075Z,26.44
2022-11-17T03:41:11.076Z,26.47
2022-11-17T03:41:41.069Z,26.46
2022-11-17T03:42:11.188Z,26.48
2022-11-17T03:42:41.301Z,26.46
2022-11-17T03:43:11.318Z,26.46
2022-11-17T03:43:41.347Z,26.46
2022-11-17T03:44:11.380Z,26.46
2022-11-17T03:44:41.409Z,26.47
2022-11-17T03:45:11.455Z,26.46
2022-11-17T03:45:41.478Z,26.46
2022-11-17T03:46:11.515Z,26.46
2022-11-17T03:46:41.553Z,26.46
2022-11-17T03:47:11.579Z,26.46
2022-11-17T03:47:41.621Z,26.46
2022-11-17T03:48:11.653Z,26.47
2022-11-17T03:48:41.680Z,26.46
2022-11-17T03:49:11.715Z,26.47
2022-11-17T03:49:41.745Z,26.44
2022-11-17T03:50:11.774Z,26.44
2022-11-17T03:50:41.801Z,26.46
2022-11-17T03:51:11.842Z,26.44
2022-11-17T03:51:41.882Z,26.47
2022-11-17T03:52:11.942Z,26.47
2022-11-17T03:52:41.947Z,26.48
2022-11-17T03:53:11.974Z,26.48
2022-11-17T03:53:42.004Z,26.47
2022-11-17T03:54:12.036Z,26.50
2022-11-17T03:54:42.071Z,26.48
2022-11-17T03:55:12.095Z,26.48
2022-11-17T03:55:42.134Z,26.47
2022-11-17T03:56:12.164Z,26.50
2022-11-17T03:56:42.197Z,26.51
2022-11-17T03:57:12.230Z,26.53
2022-11-17T03:57:42.263Z,26.51
2022-11-17T03:58:12.293Z,26.54
2022-11-17T03:58:42.329Z,26.53
2022-11-17T03:59:12.363Z,26.53
2022-11-17T03:59:42.392Z,26.54
2022-11-17T04:00:12.435Z,26.54
2022-11-17T04:00:42.488Z,26.54
2022-11-17T04:01:12.499Z,26.57
2022-11-17T04:01:42.613Z,26.58
2022-11-17T04:02:12.645Z,26.57
2022-11-17T04:02:42.696Z,26.55
2022-11-17T04:03:12.707Z,26.55
2022-11-17T04:03:42.743Z,26.61
2022-11-17T04:04:12.775Z,26.58
2022-11-17T04:04:42.806Z,26.61
2022-11-17T04:05:12.846Z,26.61
2022-11-17T04:05:42.878Z,26.64
2022-11-17T04:06:12.907Z,26.61
2022-11-17T04:06:42.948Z,26.64
2022-11-17T04:07:13.071Z,26.65
2022-11-17T04:07:43.285Z,26.64
2022-11-17T04:08:13.158Z,26.62
2022-11-17T04:08:43.189Z,26.64
2022-11-17T04:09:13.226Z,26.65
2022-11-17T04:09:43.256Z,26.65
2022-11-17T04:10:13.288Z,26.68
2022-11-17T04:10:43.312Z,26.68
2022-11-17T04:11:13.341Z,26.70
2022-11-17T04:11:43.375Z,26.67
2022-11-17T04:12:13.404Z,26.70
2022-11-17T04:12:43.434Z,26.68
2022-11-17T04:13:13.478Z,26.68
2022-11-17T04:13:43.506Z,26.71
2022-11-17T04:14:13.535Z,26.71
2022-11-17T04:14:43.569Z,26.70
2022-11-17T04:15:13.615Z,26.71
2022-11-17T04:15:43.722Z,26.71
2022-11-17T04:16:13.763Z,26.74
2022-11-17T04:16:43.793Z,26.72
2022-11-17T04:17:13.829Z,26.74
2022-11-17T04:17:43.870Z,26.75
2022-11-17T04:18:13.906Z,26.74
2022-11-17T04:18:43.934Z,26.74
2022-11-17T04:19:13.974Z,26.74
2022-11-17T04:19:44.001Z,26.75
2022-11-17T04:20:14.038Z,26.72
2022-11-17T04:20:44.068Z,26.75
2022-11-17T04:21:14.103Z,26.77
2022-11-17T04:21:44.133Z,26.77
2022-11-17T04:22:14.161Z,26.75
2022-11-17T04:22:44.197Z,26.75
2022-11-17T04:23:14.368Z,26.75
2022-11-17T04:23:44.281Z,26.78
2022-11-17T04:24:14.314Z,26.75
2022-11-17T04:24:44.356Z,26.75
2022-11-17T04:25:14.375Z,26.77
2022-11-17T04:25:44.398Z,26.77
2022-11-17T04:26:14.453Z,26.75
2022-11-17T04:26:44.463Z,26.78
2022-11-17T04:27:14.500Z,26.77
2022-11-17T04:27:44.554Z,26.78
2022-11-17T04:28:14.588Z,26.75
2022-11-17T04:28:44.625Z,26.77
2022-11-17T04:29:14.654Z,26.75
2022-11-17T04:29:44.682Z,26.77
2022-11-17T04:30:14.716Z,26.78
2022-11-17T04:30:44.756Z,26.75
2022-11-17T04:31:14.786Z,26.75
2022-11-17T04:31:44.824Z,26.77
2022-11-17T04:32:14.857Z,26.75
2022-11-17T04:32:44.905Z,26.77
2022-11-17T04:33:14.910Z,26.74
2022-11-17T04:33:45.032Z,26.74
2022-11-17T04:34:15.151Z,26.75
2022-11-17T04:34:45.150Z,26.75
2022-11-17T04:35:15.146Z,26.74
2022-11-17T04:35:45.263Z,26.75
2022-11-17T04:36:15.377Z,26.77
2022-11-17T04:36:45.537Z,26.75
2022-11-17T04:37:15.394Z,26.75
2022-11-17T04:37:45.516Z,26.77
2022-11-17T04:38:15.507Z,26.78
2022-11-17T04:38:45.525Z,26.78
2022-11-17T04:39:15.625Z,26.75
2022-11-17T04:39:45.796Z,26.74
2022-11-17T04:40:15.787Z,26.75
2022-11-17T04:40:45.907Z,26.77
2022-11-17T04:41:16.021Z,26.74
2022-11-17T04:41:46.152Z,26.78
2022-11-17T04:42:16.150Z,26.75
2022-11-17T04:42:46.157Z,26.77
2022-11-17T04:43:16.175Z,26.77
2022-11-17T04:43:46.208Z,26.77
2022-11-17T04:44:16.241Z,26.75
2022-11-17T04:44:46.275Z,26.75
2022-11-17T04:45:16.309Z,26.77
2022-11-17T04:45:46.354Z,26.79
2022-11-17T04:46:16.382Z,26.78
2022-11-17T04:46:46.425Z,26.77
2022-11-17T04:47:16.451Z,26.77
2022-11-17T04:47:46.481Z,26.75
2022-11-17T04:48:16.522Z,26.75
2022-11-17T04:48:46.553Z,26.77
2022-11-17T04:49:16.585Z,26.77
2022-11-17T04:49:46.614Z,26.77
2022-11-17T04:50:16.643Z,26.75
2022-11-17T04:50:46.678Z,26.74
2022-11-17T04:51:16.721Z,26.77
2022-11-17T04:51:46.760Z,26.78
2022-11-17T04:52:16.783Z,26.78
2022-11-17T04:52:46.816Z,26.77
2022-11-17T04:53:16.847Z,26.77
2022-11-17T04:53:46.873Z,26.78
2022-11-17T04:54:17.027Z,26.78
2022-11-17T04:54:47.023Z,26.77
2022-11-17T04:55:17.046Z,26.78
2022-11-17T04:55:47.086Z,26.77
2022-11-17T04:56:17.121Z,26.77
2022-11-17T04:56:47.161Z,26.77
2022-11-17T04:57:17.188Z,26.78
2022-11-17T04:57:47.230Z,26.79
2022-11-17T04:58:17.260Z,26.78
2022-11-17T04:58:47.294Z,26.78
2022-11-17T04:59:17.338Z,26.81
2022-11-17T04:59:47.355Z,26.79
2022-11-17T05:00:17.385Z,26.82
2022-11-17T05:00:47.417Z,26.78
2022-11-17T05:01:17.463Z,26.79
2022-11-17T05:01:47.548Z,26.79
2022-11-17T05:02:17.562Z,26.79
2022-11-17T05:02:47.608Z,26.79
2022-11-17T05:03:17.639Z,26.82
2022-11-17T05:03:47.679Z,26.81
2022-11-17T05:04:17.713Z,26.82
2022-11-17T05:04:47.749Z,26.85
2022-11-17T05:05:17.776Z,26.81
2022-11-17T05:05:47.814Z,26.81
2022-11-17T05:06:17.838Z,26.82
2022-11-17T05:06:47.872Z,26.82
2022-11-17T05:07:17.999Z,26.85
2022-11-17T05:07:48.039Z,26.84
2022-11-17T05:08:18.071Z,26.82
2022-11-17T05:08:48.106Z,26.82
2022-11-17T05:09:18.135Z,26.84
2022-11-17T05:09:48.212Z,26.85
2022-11-17T05:10:18.197Z,26.85
2022-11-17T05:10:48.311Z,26.87
2022-11-17T05:11:18.438Z,26.87
2022-11-17T05:11:48.375Z,26.87
2022-11-17T05:12:18.409Z,26.88
2022-11-17T05:12:48.433Z,26.88
2022-11-17T05:13:18.459Z,26.88
2022-11-17T05:13:48.490Z,26.88
2022-11-17T05:14:18.517Z,26.89
2022-11-17T05:14:48.548Z,26.88
2022-11-17T05:15:18.576Z,26.89
2022-11-17T05:15:48.604Z,26.92
2022-11-17T05:16:18.639Z,26.89
2022-11-17T05:16:48.671Z,26.89
2022-11-17T05:17:18.706Z,26.92
2022-11-17T05:17:48.751Z,26.89
2022-11-17T05:18:18.785Z,26.91
2022-11-17T05:18:48.820Z,26.91
2022-11-17T05:19:18.857Z,26.91
2022-11-17T05:19:48.880Z,26.94
2022-11-17T05:20:18.910Z,26.92
2022-11-17T05:20:48.944Z,26.95
2022-11-17T05:21:18.975Z,26.92
2022-11-17T05:21:49.016Z,26.95
2022-11-17T05:22:19.047Z,26.94
2022-11-17T05:22:49.076Z,26.92
2022-11-17T05:23:19.107Z,26.91
2022-11-17T05:23:49.137Z,26.92
2022-11-17T05:24:19.179Z,26.92
2022-11-17T05:24:49.208Z,26.95
2022-11-17T05:25:19.259Z,26.94
2022-11-17T05:25:49.273Z,26.94
2022-11-17T05:26:19.302Z,26.94
2022-11-17T05:26:49.333Z,26.92
2022-11-17T05:27:19.367Z,26.94
2022-11-17T05:27:49.400Z,26.95
2022-11-17T05:28:19.425Z,26.94
2022-11-17T05:28:49.459Z,26.94
2022-11-17T05:29:19.488Z,26.94
2022-11-17T05:29:49.518Z,26.95
2022-11-17T05:30:19.553Z,26.96
2022-11-17T05:30:49.578Z,26.92
2022-11-17T05:31:19.606Z,26.92
2022-11-17T05:31:49.646Z,26.95
2022-11-17T05:32:19.675Z,26.96
2022-11-17T05:32:49.707Z,26.99
2022-11-17T05:33:19.713Z,26.95
2022-11-17T05:33:49.840Z,26.95
2022-11-17T05:34:19.826Z,26.94
2022-11-17T05:34:49.947Z,26.96
2022-11-17T05:35:20.066Z,26.95
2022-11-17T05:35:50.182Z,26.95
2022-11-17T05:36:20.175Z,26.92
2022-11-17T05:36:50.297Z,26.94
2022-11-17T05:37:20.288Z,26.95
2022-11-17T05:37:50.406Z,26.96
2022-11-17T05:38:20.525Z,26.95
2022-11-17T05:38:50.641Z,26.95
2022-11-17T05:39:20.637Z,26.95
2022-11-17T05:39:50.632Z,26.96
2022-11-17T05:40:20.745Z,26.96
2022-11-17T05:40:50.888Z,26.95
2022-11-17T05:41:20.861Z,26.92
2022-11-17T05:41:50.975Z,26.94
2022-11-17T05:42:21.088Z,26.95
2022-11-17T05:42:56.868Z,26.96
2022-11-17T05:43:21.258Z,26.95
2022-11-17T05:43:51.286Z,26.95
2022-11-17T05:44:21.356Z,26.92
2022-11-17T05:44:51.373Z,26.92
2022-11-17T05:45:21.408Z,26.91
2022-11-17T05:45:51.441Z,26.92
2022-11-17T05:46:21.475Z,26.95
2022-11-17T05:46:51.503Z,26.95
2022-11-17T05:47:21.539Z,26.95
2022-11-17T05:47:51.571Z,26.94
2022-11-17T05:48:21.598Z,26.92
2022-11-17T05:48:51.632Z,26.92
2022-11-17T05:49:21.671Z,26.94
2022-11-17T05:49:51.705Z,26.94
2022-11-17T05:50:21.738Z,26.94
2022-11-17T05:50:51.775Z,26.89
2022-11-17T05:51:21.801Z,26.89
2022-11-17T05:51:53.115Z,26.92
2022-11-17T05:52:21.910Z,26.92
2022-11-17T05:52:51.943Z,26.92
2022-11-17T05:53:21.967Z,26.94
2022-11-17T05:53:51.999Z,26.92
2022-11-17T05:54:22.025Z,26.92
2022-11-17T05:54:52.061Z,26.91
2022-11-17T05:55:22.093Z,26.88
2022-11-17T05:55:52.128Z,26.89
2022-11-17T05:56:22.281Z,26.91
2022-11-17T05:56:52.292Z,26.91
2022-11-17T05:57:22.326Z,26.91
2022-11-17T05:57:52.354Z,26.89
2022-11-17T05:58:22.386Z,26.91
2022-11-17T05:58:52.418Z,26.92
2022-11-17T05:59:27.548Z,26.89
2022-11-17T05:59:52.503Z,26.89
2022-11-17T06:00:22.520Z,26.87
2022-11-17T06:00:52.558Z,26.84
2022-11-17T06:01:22.585Z,26.87
2022-11-17T06:01:52.633Z,26.85
2022-11-17T06:02:22.667Z,26.85
2022-11-17T06:02:52.700Z,26.84
2022-11-17T06:03:22.730Z,26.81
2022-11-17T06:03:52.791Z,26.81
2022-11-17T06:04:22.863Z,26.79
2022-11-17T06:04:52.867Z,26.79
2022-11-17T06:05:22.903Z,26.81
2022-11-17T06:05:52.934Z,26.81
2022-11-17T06:06:22.966Z,26.82
2022-11-17T06:06:53.047Z,26.84
2022-11-17T06:07:23.180Z,26.82
2022-11-17T06:07:53.089Z,26.81
2022-11-17T06:08:23.122Z,26.84
2022-11-17T06:08:53.160Z,26.82
2022-11-17T06:09:23.206Z,26.84
2022-11-17T06:09:53.253Z,26.85
2022-11-17T06:10:23.273Z,26.84
2022-11-17T06:10:53.306Z,26.84
2022-11-17T06:11:23.337Z,26.84
2022-11-17T06:11:53.485Z,26.84
2022-11-17T06:12:23.483Z,26.84
2022-11-17T06:12:53.520Z,26.87
2022-11-17T06:13:23.550Z,26.85
2022-11-17T06:13:53.587Z,26.85
2022-11-17T06:14:23.625Z,26.84
2022-11-17T06:14:53.656Z,26.87
2022-11-17T06:15:23.687Z,26.87
2022-11-17T06:15:53.724Z,26.88
2022-11-17T06:16:23.762Z,26.88
2022-11-17T06:16:53.789Z,26.91
2022-11-17T06:17:23.848Z,26.89
2022-11-17T06:17:53.872Z,26.92
2022-11-17T06:18:23.904Z,26.92
2022-11-17T06:18:53.943Z,26.92
2022-11-17T06:19:23.972Z,26.95
2022-11-17T06:19:54.006Z,26.94
2022-11-17T06:20:24.040Z,26.95
2022-11-17T06:20:54.075Z,26.96
2022-11-17T06:21:24.111Z,26.96
2022-11-17T06:22:11.654Z,26.98
2022-11-17T06:22:24.200Z,26.99
2022-11-17T06:22:54.229Z,26.99
2022-11-17T06:23:24.262Z,26.99
2022-11-17T06:23:54.290Z,26.99
2022-11-17T06:24:24.322Z,27.01
2022-11-17T06:24:54.348Z,27.02
2022-11-17T06:25:24.379Z,27.01
2022-11-17T06:25:54.409Z,27.02
2022-11-17T06:26:24.443Z,27.01
2022-11-17T06:26:54.481Z,27.03